sensor_id;sensor_type;location;lat;lon;timestamp;temperature;humidity
54124;DHT22;55741;53.252;5.788;2022-07-29T00:00:09;14.90;99.90
54124;DHT22;55741;53.252;5.788;2022-07-29T00:02:35;14.90;99.90
54124;DHT22;55741;53.252;5.788;2022-07-29T00:05:01;14.90;99.90
54124;DHT22;55741;53.252;5.788;2022-07-29T00:07:27;14.90;99.90
54124;DHT22;55741;53.252;5.788;2022-07-29T00:09:53;14.90;99.90
54124;DHT22;55741;53.252;5.788;2022-07-29T00:12:20;14.80;99.90
54124;DHT22;55741;53.252;5.788;2022-07-29T00:14:47;14.80;99.90
54124;DHT22;55741;53.252;5.788;2022-07-29T00:17:13;14.80;99.90
54124;DHT22;55741;53.252;5.788;2022-07-29T00:19:38;14.80;99.90
54124;DHT22;55741;53.252;5.788;2022-07-29T00:22:04;14.80;99.90
54124;DHT22;55741;53.252;5.788;2022-07-29T00:24:30;14.80;99.90
54124;DHT22;55741;53.252;5.788;2022-07-29T00:26:56;14.80;99.90
54124;DHT22;55741;53.252;5.788;2022-07-29T00:29:22;14.90;99.90
54124;DHT22;55741;53.252;5.788;2022-07-29T00:31:48;14.80;99.90
54124;DHT22;55741;53.252;5.788;2022-07-29T00:34:13;14.90;99.90
54124;DHT22;55741;53.252;5.788;2022-07-29T00:36:58;14.90;99.90
54124;DHT22;55741;53.252;5.788;2022-07-29T00:39:24;14.90;99.90
54124;DHT22;55741;53.252;5.788;2022-07-29T00:41:50;14.90;99.90
54124;DHT22;55741;53.252;5.788;2022-07-29T00:44:16;14.90;99.90
54124;DHT22;55741;53.252;5.788;2022-07-29T00:46:43;14.90;99.90
54124;DHT22;55741;53.252;5.788;2022-07-29T00:49:09;14.90;99.90
54124;DHT22;55741;53.252;5.788;2022-07-29T00:51:38;14.90;99.90
54124;DHT22;55741;53.252;5.788;2022-07-29T00:54:05;14.90;99.90
54124;DHT22;55741;53.252;5.788;2022-07-29T00:56:31;15.00;99.90
54124;DHT22;55741;53.252;5.788;2022-07-29T00:58:58;14.90;99.90
54124;DHT22;55741;53.252;5.788;2022-07-29T01:01:24;14.90;99.90
54124;DHT22;55741;53.252;5.788;2022-07-29T01:03:50;14.90;99.90
54124;DHT22;55741;53.252;5.788;2022-07-29T01:06:17;14.90;99.90
54124;DHT22;55741;53.252;5.788;2022-07-29T01:08:45;14.90;99.90
54124;DHT22;55741;53.252;5.788;2022-07-29T01:11:11;14.90;99.90
54124;DHT22;55741;53.252;5.788;2022-07-29T01:13:37;14.90;99.90
54124;DHT22;55741;53.252;5.788;2022-07-29T01:16:25;14.90;99.90
54124;DHT22;55741;53.252;5.788;2022-07-29T01:18:56;14.90;99.90
54124;DHT22;55741;53.252;5.788;2022-07-29T01:27:38;14.90;99.90
54124;DHT22;55741;53.252;5.788;2022-07-29T01:30:07;14.90;99.90
54124;DHT22;55741;53.252;5.788;2022-07-29T01:32:35;15.00;99.90
54124;DHT22;55741;53.252;5.788;2022-07-29T01:35:10;15.00;99.90
54124;DHT22;55741;53.252;5.788;2022-07-29T01:40:54;15.00;99.90
54124;DHT22;55741;53.252;5.788;2022-07-29T01:43:46;14.90;99.90
54124;DHT22;55741;53.252;5.788;2022-07-29T01:46:19;15.00;99.90
54124;DHT22;55741;53.252;5.788;2022-07-29T01:48:57;15.00;99.90
54124;DHT22;55741;53.252;5.788;2022-07-29T01:51:53;15.00;99.90
54124;DHT22;55741;53.252;5.788;2022-07-29T01:54:26;15.00;99.90
54124;DHT22;55741;53.252;5.788;2022-07-29T01:56:56;15.00;99.90
54124;DHT22;55741;53.252;5.788;2022-07-29T01:59:25;15.00;99.90
54124;DHT22;55741;53.252;5.788;2022-07-29T02:01:53;15.00;99.90
54124;DHT22;55741;53.252;5.788;2022-07-29T02:04:20;15.00;99.90
54124;DHT22;55741;53.252;5.788;2022-07-29T02:06:49;15.00;99.90
54124;DHT22;55741;53.252;5.788;2022-07-29T02:09:16;15.10;99.90
54124;DHT22;55741;53.252;5.788;2022-07-29T02:11:48;15.10;99.90
54124;DHT22;55741;53.252;5.788;2022-07-29T02:14:17;15.10;99.90
54124;DHT22;55741;53.252;5.788;2022-07-29T02:16:43;15.10;99.90
54124;DHT22;55741;53.252;5.788;2022-07-29T02:19:10;15.10;99.90
54124;DHT22;55741;53.252;5.788;2022-07-29T02:21:38;15.10;99.90
54124;DHT22;55741;53.252;5.788;2022-07-29T02:24:05;15.10;99.90
54124;DHT22;55741;53.252;5.788;2022-07-29T02:26:33;15.10;99.90
54124;DHT22;55741;53.252;5.788;2022-07-29T02:29:00;15.10;99.90
54124;DHT22;55741;53.252;5.788;2022-07-29T02:31:35;15.20;99.90
54124;DHT22;55741;53.252;5.788;2022-07-29T02:34:06;15.20;99.90
54124;DHT22;55741;53.252;5.788;2022-07-29T02:36:34;15.20;99.90
54124;DHT22;55741;53.252;5.788;2022-07-29T02:39:00;15.20;99.90
54124;DHT22;55741;53.252;5.788;2022-07-29T02:41:47;15.20;99.90
54124;DHT22;55741;53.252;5.788;2022-07-29T02:44:18;15.20;99.90
54124;DHT22;55741;53.252;5.788;2022-07-29T02:46:52;15.30;99.90
54124;DHT22;55741;53.252;5.788;2022-07-29T02:51:51;15.30;99.90
54124;DHT22;55741;53.252;5.788;2022-07-29T02:58:21;15.30;99.90
54124;DHT22;55741;53.252;5.788;2022-07-29T03:00:28;15.30;99.90
54124;DHT22;55741;53.252;5.788;2022-07-29T03:02:57;15.30;99.90
54124;DHT22;55741;53.252;5.788;2022-07-29T03:05:24;15.30;99.90
54124;DHT22;55741;53.252;5.788;2022-07-29T03:08:11;15.30;99.90
54124;DHT22;55741;53.252;5.788;2022-07-29T03:10:39;15.30;99.90
54124;DHT22;55741;53.252;5.788;2022-07-29T03:13:08;15.30;99.90
54124;DHT22;55741;53.252;5.788;2022-07-29T03:15:35;15.30;99.90
54124;DHT22;55741;53.252;5.788;2022-07-29T03:18:01;15.30;99.90
54124;DHT22;55741;53.252;5.788;2022-07-29T03:20:27;15.30;99.90
54124;DHT22;55741;53.252;5.788;2022-07-29T03:22:53;15.30;99.90
54124;DHT22;55741;53.252;5.788;2022-07-29T03:25:20;15.30;99.90
54124;DHT22;55741;53.252;5.788;2022-07-29T03:27:46;15.30;99.90
54124;DHT22;55741;53.252;5.788;2022-07-29T03:30:13;15.30;99.90
54124;DHT22;55741;53.252;5.788;2022-07-29T03:32:39;15.30;99.90
54124;DHT22;55741;53.252;5.788;2022-07-29T03:35:06;15.30;99.90
54124;DHT22;55741;53.252;5.788;2022-07-29T03:37:32;15.30;99.90
54124;DHT22;55741;53.252;5.788;2022-07-29T03:40:01;15.30;99.90
54124;DHT22;55741;53.252;5.788;2022-07-29T03:42:31;15.30;99.90
54124;DHT22;55741;53.252;5.788;2022-07-29T03:45:00;15.30;99.90
54124;DHT22;55741;53.252;5.788;2022-07-29T03:47:28;15.30;99.90
54124;DHT22;55741;53.252;5.788;2022-07-29T03:50:00;15.30;99.90
54124;DHT22;55741;53.252;5.788;2022-07-29T03:52:27;15.20;99.90
54124;DHT22;55741;53.252;5.788;2022-07-29T03:54:54;15.20;99.90
54124;DHT22;55741;53.252;5.788;2022-07-29T03:57:24;15.20;99.90
54124;DHT22;55741;53.252;5.788;2022-07-29T03:59:52;15.20;99.90
54124;DHT22;55741;53.252;5.788;2022-07-29T04:02:19;15.20;99.90
54124;DHT22;55741;53.252;5.788;2022-07-29T04:04:45;15.20;99.90
54124;DHT22;55741;53.252;5.788;2022-07-29T04:07:15;15.20;99.90
54124;DHT22;55741;53.252;5.788;2022-07-29T04:09:41;15.20;99.90
54124;DHT22;55741;53.252;5.788;2022-07-29T04:12:07;15.20;99.90
54124;DHT22;55741;53.252;5.788;2022-07-29T04:14:34;15.20;99.90
54124;DHT22;55741;53.252;5.788;2022-07-29T04:17:00;15.20;99.90
54124;DHT22;55741;53.252;5.788;2022-07-29T04:19:26;15.20;99.90
54124;DHT22;55741;53.252;5.788;2022-07-29T04:21:52;15.20;99.90
54124;DHT22;55741;53.252;5.788;2022-07-29T04:24:18;15.20;99.90
54124;DHT22;55741;53.252;5.788;2022-07-29T04:26:46;15.20;99.90
54124;DHT22;55741;53.252;5.788;2022-07-29T04:29:12;15.20;99.90
54124;DHT22;55741;53.252;5.788;2022-07-29T04:31:40;15.20;99.90
54124;DHT22;55741;53.252;5.788;2022-07-29T04:34:06;15.20;99.90
54124;DHT22;55741;53.252;5.788;2022-07-29T04:36:32;15.20;99.90
54124;DHT22;55741;53.252;5.788;2022-07-29T04:38:57;15.20;99.90
54124;DHT22;55741;53.252;5.788;2022-07-29T04:41:24;15.20;99.90
54124;DHT22;55741;53.252;5.788;2022-07-29T04:43:49;15.20;99.90
54124;DHT22;55741;53.252;5.788;2022-07-29T04:46:15;15.20;99.90
54124;DHT22;55741;53.252;5.788;2022-07-29T04:48:41;15.20;99.90
54124;DHT22;55741;53.252;5.788;2022-07-29T04:51:09;15.30;99.90
54124;DHT22;55741;53.252;5.788;2022-07-29T04:53:34;15.20;99.90
54124;DHT22;55741;53.252;5.788;2022-07-29T04:56:00;15.30;99.90
54124;DHT22;55741;53.252;5.788;2022-07-29T04:58:26;15.30;99.90
54124;DHT22;55741;53.252;5.788;2022-07-29T05:00:52;15.30;99.90
54124;DHT22;55741;53.252;5.788;2022-07-29T05:03:18;15.30;99.90
54124;DHT22;55741;53.252;5.788;2022-07-29T05:05:44;15.40;99.90
54124;DHT22;55741;53.252;5.788;2022-07-29T05:08:09;15.40;99.90
54124;DHT22;55741;53.252;5.788;2022-07-29T05:10:35;15.40;99.90
54124;DHT22;55741;53.252;5.788;2022-07-29T05:13:05;15.40;99.90
54124;DHT22;55741;53.252;5.788;2022-07-29T05:15:32;15.50;99.90
54124;DHT22;55741;53.252;5.788;2022-07-29T05:17:59;15.50;99.90
54124;DHT22;55741;53.252;5.788;2022-07-29T05:20:25;15.50;99.90
54124;DHT22;55741;53.252;5.788;2022-07-29T05:22:55;15.60;99.90
54124;DHT22;55741;53.252;5.788;2022-07-29T05:25:21;15.60;99.90
54124;DHT22;55741;53.252;5.788;2022-07-29T05:27:47;15.60;99.90
54124;DHT22;55741;53.252;5.788;2022-07-29T05:30:13;15.70;99.90
54124;DHT22;55741;53.252;5.788;2022-07-29T05:32:39;15.70;99.90
54124;DHT22;55741;53.252;5.788;2022-07-29T05:35:05;15.70;99.90
54124;DHT22;55741;53.252;5.788;2022-07-29T05:37:31;15.80;99.90
54124;DHT22;55741;53.252;5.788;2022-07-29T05:39:57;15.90;99.90
54124;DHT22;55741;53.252;5.788;2022-07-29T05:42:24;15.90;99.90
54124;DHT22;55741;53.252;5.788;2022-07-29T05:44:50;16.00;99.90
54124;DHT22;55741;53.252;5.788;2022-07-29T05:47:16;16.00;99.90
54124;DHT22;55741;53.252;5.788;2022-07-29T05:49:42;16.10;99.90
54124;DHT22;55741;53.252;5.788;2022-07-29T05:52:09;16.10;99.90
54124;DHT22;55741;53.252;5.788;2022-07-29T05:54:35;16.20;99.90
54124;DHT22;55741;53.252;5.788;2022-07-29T05:57:03;16.20;99.90
54124;DHT22;55741;53.252;5.788;2022-07-29T05:59:28;16.20;99.90
54124;DHT22;55741;53.252;5.788;2022-07-29T06:01:54;16.30;99.90
54124;DHT22;55741;53.252;5.788;2022-07-29T06:04:20;16.40;99.90
54124;DHT22;55741;53.252;5.788;2022-07-29T06:06:46;16.40;99.90
54124;DHT22;55741;53.252;5.788;2022-07-29T06:09:12;16.40;99.90
54124;DHT22;55741;53.252;5.788;2022-07-29T06:11:38;16.50;99.90
54124;DHT22;55741;53.252;5.788;2022-07-29T06:14:03;16.60;99.90
54124;DHT22;55741;53.252;5.788;2022-07-29T06:16:29;16.60;99.90
54124;DHT22;55741;53.252;5.788;2022-07-29T06:18:55;16.70;99.90
54124;DHT22;55741;53.252;5.788;2022-07-29T06:21:21;16.80;99.90
54124;DHT22;55741;53.252;5.788;2022-07-29T06:23:47;16.90;99.90
54124;DHT22;55741;53.252;5.788;2022-07-29T06:26:13;17.00;99.90
54124;DHT22;55741;53.252;5.788;2022-07-29T06:28:39;17.10;99.90
54124;DHT22;55741;53.252;5.788;2022-07-29T06:31:05;17.20;99.90
54124;DHT22;55741;53.252;5.788;2022-07-29T06:33:31;17.40;99.90
54124;DHT22;55741;53.252;5.788;2022-07-29T06:35:57;17.50;99.90
54124;DHT22;55741;53.252;5.788;2022-07-29T06:38:23;17.60;99.90
54124;DHT22;55741;53.252;5.788;2022-07-29T06:40:48;17.80;99.90
54124;DHT22;55741;53.252;5.788;2022-07-29T06:43:37;18.00;99.90
54124;DHT22;55741;53.252;5.788;2022-07-29T06:46:08;18.00;99.90
54124;DHT22;55741;53.252;5.788;2022-07-29T06:48:34;18.10;99.90
54124;DHT22;55741;53.252;5.788;2022-07-29T06:51:03;18.30;99.90
54124;DHT22;55741;53.252;5.788;2022-07-29T06:53:32;18.40;99.90
54124;DHT22;55741;53.252;5.788;2022-07-29T06:55:59;18.40;99.90
54124;DHT22;55741;53.252;5.788;2022-07-29T06:58:27;18.50;99.90
54124;DHT22;55741;53.252;5.788;2022-07-29T07:00:53;18.60;99.90
54124;DHT22;55741;53.252;5.788;2022-07-29T07:03:20;18.60;99.90
54124;DHT22;55741;53.252;5.788;2022-07-29T07:05:46;18.60;99.90
54124;DHT22;55741;53.252;5.788;2022-07-29T07:08:12;18.70;99.90
54124;DHT22;55741;53.252;5.788;2022-07-29T07:10:38;18.70;99.90
54124;DHT22;55741;53.252;5.788;2022-07-29T07:13:05;18.70;99.90
54124;DHT22;55741;53.252;5.788;2022-07-29T07:15:31;18.80;99.90
54124;DHT22;55741;53.252;5.788;2022-07-29T07:17:57;18.90;99.90
54124;DHT22;55741;53.252;5.788;2022-07-29T07:20:24;19.00;99.90
54124;DHT22;55741;53.252;5.788;2022-07-29T07:22:50;19.10;99.90
54124;DHT22;55741;53.252;5.788;2022-07-29T07:25:16;19.10;99.90
54124;DHT22;55741;53.252;5.788;2022-07-29T07:27:46;19.20;99.90
54124;DHT22;55741;53.252;5.788;2022-07-29T07:30:12;19.30;99.90
54124;DHT22;55741;53.252;5.788;2022-07-29T07:32:38;19.30;99.90
54124;DHT22;55741;53.252;5.788;2022-07-29T07:35:06;19.40;99.90
54124;DHT22;55741;53.252;5.788;2022-07-29T07:37:33;19.50;99.90
54124;DHT22;55741;53.252;5.788;2022-07-29T07:39:58;19.50;99.90
54124;DHT22;55741;53.252;5.788;2022-07-29T07:42:24;19.60;99.90
54124;DHT22;55741;53.252;5.788;2022-07-29T07:44:50;19.60;99.90
54124;DHT22;55741;53.252;5.788;2022-07-29T07:47:16;19.60;99.90
54124;DHT22;55741;53.252;5.788;2022-07-29T07:49:48;19.60;99.90
54124;DHT22;55741;53.252;5.788;2022-07-29T07:52:17;19.70;99.90
54124;DHT22;55741;53.252;5.788;2022-07-29T07:54:45;19.60;99.90
54124;DHT22;55741;53.252;5.788;2022-07-29T07:57:11;19.60;99.90
54124;DHT22;55741;53.252;5.788;2022-07-29T07:59:38;19.50;99.90
54124;DHT22;55741;53.252;5.788;2022-07-29T08:02:04;19.50;99.90
54124;DHT22;55741;53.252;5.788;2022-07-29T08:04:30;19.50;99.90
54124;DHT22;55741;53.252;5.788;2022-07-29T08:06:57;19.50;99.90
54124;DHT22;55741;53.252;5.788;2022-07-29T08:09:25;19.40;99.90
54124;DHT22;55741;53.252;5.788;2022-07-29T08:11:52;19.40;99.90
54124;DHT22;55741;53.252;5.788;2022-07-29T08:14:18;19.40;99.90
54124;DHT22;55741;53.252;5.788;2022-07-29T08:16:44;19.30;99.90
54124;DHT22;55741;53.252;5.788;2022-07-29T08:19:11;19.30;99.90
54124;DHT22;55741;53.252;5.788;2022-07-29T08:21:37;19.30;99.90
54124;DHT22;55741;53.252;5.788;2022-07-29T08:24:03;19.30;99.90
54124;DHT22;55741;53.252;5.788;2022-07-29T08:26:48;19.30;99.90
54124;DHT22;55741;53.252;5.788;2022-07-29T08:29:14;19.30;99.90
54124;DHT22;55741;53.252;5.788;2022-07-29T08:31:40;19.30;99.90
54124;DHT22;55741;53.252;5.788;2022-07-29T08:34:06;19.40;99.90
54124;DHT22;55741;53.252;5.788;2022-07-29T08:36:33;19.50;99.90
54124;DHT22;55741;53.252;5.788;2022-07-29T08:39:00;19.60;99.90
54124;DHT22;55741;53.252;5.788;2022-07-29T08:41:27;19.70;99.90
54124;DHT22;55741;53.252;5.788;2022-07-29T08:43:53;19.90;99.90
54124;DHT22;55741;53.252;5.788;2022-07-29T08:46:20;20.20;99.90
54124;DHT22;55741;53.252;5.788;2022-07-29T08:48:46;20.50;99.90
54124;DHT22;55741;53.252;5.788;2022-07-29T08:51:14;20.80;99.90
54124;DHT22;55741;53.252;5.788;2022-07-29T08:53:43;21.00;99.90
54124;DHT22;55741;53.252;5.788;2022-07-29T08:56:14;21.20;99.90
54124;DHT22;55741;53.252;5.788;2022-07-29T08:58:41;21.40;99.90
54124;DHT22;55741;53.252;5.788;2022-07-29T09:01:07;21.40;99.90
54124;DHT22;55741;53.252;5.788;2022-07-29T09:03:35;21.50;99.90
54124;DHT22;55741;53.252;5.788;2022-07-29T09:06:03;21.60;99.90
54124;DHT22;55741;53.252;5.788;2022-07-29T09:08:32;21.70;99.90
54124;DHT22;55741;53.252;5.788;2022-07-29T09:11:01;21.80;99.90
54124;DHT22;55741;53.252;5.788;2022-07-29T09:13:27;21.80;99.90
54124;DHT22;55741;53.252;5.788;2022-07-29T09:15:53;21.80;99.90
54124;DHT22;55741;53.252;5.788;2022-07-29T09:18:41;21.70;99.90
54124;DHT22;55741;53.252;5.788;2022-07-29T09:21:08;21.60;99.90
54124;DHT22;55741;53.252;5.788;2022-07-29T09:24:12;21.60;99.90
54124;DHT22;55741;53.252;5.788;2022-07-29T09:26:43;21.50;99.90
54124;DHT22;55741;53.252;5.788;2022-07-29T09:29:11;21.40;99.90
54124;DHT22;55741;53.252;5.788;2022-07-29T09:31:42;21.40;99.90
54124;DHT22;55741;53.252;5.788;2022-07-29T09:34:09;21.30;99.90
54124;DHT22;55741;53.252;5.788;2022-07-29T09:39:08;21.20;99.90
54124;DHT22;55741;53.252;5.788;2022-07-29T09:41:54;21.20;99.90
54124;DHT22;55741;53.252;5.788;2022-07-29T09:44:21;21.20;99.90
54124;DHT22;55741;53.252;5.788;2022-07-29T09:46:58;21.20;99.90
54124;DHT22;55741;53.252;5.788;2022-07-29T09:49:25;21.30;99.90
54124;DHT22;55741;53.252;5.788;2022-07-29T09:52:05;21.20;99.90
54124;DHT22;55741;53.252;5.788;2022-07-29T09:54:32;21.20;99.90
54124;DHT22;55741;53.252;5.788;2022-07-29T09:57:21;21.10;99.90
54124;DHT22;55741;53.252;5.788;2022-07-29T09:59:58;21.20;99.90
54124;DHT22;55741;53.252;5.788;2022-07-29T10:02:31;21.10;99.90
54124;DHT22;55741;53.252;5.788;2022-07-29T10:04:58;21.20;99.90
54124;DHT22;55741;53.252;5.788;2022-07-29T10:07:24;21.20;99.90
54124;DHT22;55741;53.252;5.788;2022-07-29T10:09:55;21.20;99.90
54124;DHT22;55741;53.252;5.788;2022-07-29T10:12:21;21.10;99.90
54124;DHT22;55741;53.252;5.788;2022-07-29T10:14:48;21.10;99.90
54124;DHT22;55741;53.252;5.788;2022-07-29T10:17:16;21.00;99.90
54124;DHT22;55741;53.252;5.788;2022-07-29T10:19:42;21.00;99.90
54124;DHT22;55741;53.252;5.788;2022-07-29T10:22:10;21.00;99.90
54124;DHT22;55741;53.252;5.788;2022-07-29T10:24:37;21.00;99.90
54124;DHT22;55741;53.252;5.788;2022-07-29T10:27:05;21.00;99.90
54124;DHT22;55741;53.252;5.788;2022-07-29T10:29:31;20.90;99.90
54124;DHT22;55741;53.252;5.788;2022-07-29T10:43:25;20.50;99.90
54124;DHT22;55741;53.252;5.788;2022-07-29T10:45:56;20.40;99.90
54124;DHT22;55741;53.252;5.788;2022-07-29T10:48:23;20.40;99.90
54124;DHT22;55741;53.252;5.788;2022-07-29T10:51:00;20.30;99.90
54124;DHT22;55741;53.252;5.788;2022-07-29T10:53:51;20.20;99.90
54124;DHT22;55741;53.252;5.788;2022-07-29T10:56:26;20.10;99.90
54124;DHT22;55741;53.252;5.788;2022-07-29T11:01:52;20.10;99.90
54124;DHT22;55741;53.252;5.788;2022-07-29T11:07:09;20.20;99.90
54124;DHT22;55741;53.252;5.788;2022-07-29T11:09:35;20.30;99.90
54124;DHT22;55741;53.252;5.788;2022-07-29T11:12:01;20.40;99.90
54124;DHT22;55741;53.252;5.788;2022-07-29T11:14:57;20.50;99.90
54124;DHT22;55741;53.252;5.788;2022-07-29T11:17:24;20.70;99.90
54124;DHT22;55741;53.252;5.788;2022-07-29T11:19:50;20.80;99.90
54124;DHT22;55741;53.252;5.788;2022-07-29T11:22:34;20.90;99.90
54124;DHT22;55741;53.252;5.788;2022-07-29T11:25:20;21.00;99.90
54124;DHT22;55741;53.252;5.788;2022-07-29T11:27:46;21.00;99.90
54124;DHT22;55741;53.252;5.788;2022-07-29T11:30:13;21.00;99.90
54124;DHT22;55741;53.252;5.788;2022-07-29T11:32:41;21.00;99.90
54124;DHT22;55741;53.252;5.788;2022-07-29T11:35:16;21.00;99.90
54124;DHT22;55741;53.252;5.788;2022-07-29T11:37:43;20.90;99.90
54124;DHT22;55741;53.252;5.788;2022-07-29T11:40:13;20.90;99.90
54124;DHT22;55741;53.252;5.788;2022-07-29T11:42:44;20.90;99.90
54124;DHT22;55741;53.252;5.788;2022-07-29T11:45:19;20.80;99.90
54124;DHT22;55741;53.252;5.788;2022-07-29T11:50:13;20.80;99.90
54124;DHT22;55741;53.252;5.788;2022-07-29T11:52:42;20.80;99.90
54124;DHT22;55741;53.252;5.788;2022-07-29T11:55:19;20.80;99.90
54124;DHT22;55741;53.252;5.788;2022-07-29T11:57:48;20.80;99.90
54124;DHT22;55741;53.252;5.788;2022-07-29T12:00:23;20.80;99.90
54124;DHT22;55741;53.252;5.788;2022-07-29T12:02:49;20.80;99.90
54124;DHT22;55741;53.252;5.788;2022-07-29T12:05:14;20.80;99.90
54124;DHT22;55741;53.252;5.788;2022-07-29T12:07:40;20.80;99.90
54124;DHT22;55741;53.252;5.788;2022-07-29T12:10:07;20.80;99.90
54124;DHT22;55741;53.252;5.788;2022-07-29T12:12:34;20.80;99.90
54124;DHT22;55741;53.252;5.788;2022-07-29T12:15:16;20.80;99.90
54124;DHT22;55741;53.252;5.788;2022-07-29T12:17:46;20.80;99.90
54124;DHT22;55741;53.252;5.788;2022-07-29T12:20:13;20.90;99.90
54124;DHT22;55741;53.252;5.788;2022-07-29T12:22:41;20.90;99.90
54124;DHT22;55741;53.252;5.788;2022-07-29T12:25:13;20.90;99.90
54124;DHT22;55741;53.252;5.788;2022-07-29T12:27:44;21.00;99.90
54124;DHT22;55741;53.252;5.788;2022-07-29T12:30:14;21.00;99.90
54124;DHT22;55741;53.252;5.788;2022-07-29T12:32:46;21.10;99.90
54124;DHT22;55741;53.252;5.788;2022-07-29T12:35:14;21.20;99.90
54124;DHT22;55741;53.252;5.788;2022-07-29T12:37:42;21.30;99.90
54124;DHT22;55741;53.252;5.788;2022-07-29T12:40:11;21.40;99.90
54124;DHT22;55741;53.252;5.788;2022-07-29T12:42:39;21.50;99.90
54124;DHT22;55741;53.252;5.788;2022-07-29T12:45:05;21.60;99.90
54124;DHT22;55741;53.252;5.788;2022-07-29T12:47:32;21.70;99.90
54124;DHT22;55741;53.252;5.788;2022-07-29T12:52:34;22.00;99.90
54124;DHT22;55741;53.252;5.788;2022-07-29T12:55:01;22.10;99.90
54124;DHT22;55741;53.252;5.788;2022-07-29T12:57:27;22.10;99.90
54124;DHT22;55741;53.252;5.788;2022-07-29T13:00:08;22.20;99.90
54124;DHT22;55741;53.252;5.788;2022-07-29T13:02:41;22.30;99.90
54124;DHT22;55741;53.252;5.788;2022-07-29T13:05:09;22.40;99.90
54124;DHT22;55741;53.252;5.788;2022-07-29T13:07:37;22.50;99.90
54124;DHT22;55741;53.252;5.788;2022-07-29T13:10:23;22.50;99.90
54124;DHT22;55741;53.252;5.788;2022-07-29T13:13:06;22.60;99.90
54124;DHT22;55741;53.252;5.788;2022-07-29T13:15:32;22.50;99.90
54124;DHT22;55741;53.252;5.788;2022-07-29T13:17:58;22.60;99.90
54124;DHT22;55741;53.252;5.788;2022-07-29T13:20:27;22.60;99.90
54124;DHT22;55741;53.252;5.788;2022-07-29T13:22:56;22.60;99.90
54124;DHT22;55741;53.252;5.788;2022-07-29T13:25:28;22.70;99.90
54124;DHT22;55741;53.252;5.788;2022-07-29T13:27:55;22.70;99.90
54124;DHT22;55741;53.252;5.788;2022-07-29T13:30:22;22.80;99.90
54124;DHT22;55741;53.252;5.788;2022-07-29T13:32:48;22.90;99.90
54124;DHT22;55741;53.252;5.788;2022-07-29T13:35:14;23.10;99.90
54124;DHT22;55741;53.252;5.788;2022-07-29T13:37:40;23.30;99.90
54124;DHT22;55741;53.252;5.788;2022-07-29T13:40:07;23.50;99.90
54124;DHT22;55741;53.252;5.788;2022-07-29T13:42:34;23.70;99.90
54124;DHT22;55741;53.252;5.788;2022-07-29T13:45:00;24.00;99.90
54124;DHT22;55741;53.252;5.788;2022-07-29T13:47:27;24.30;99.90
54124;DHT22;55741;53.252;5.788;2022-07-29T13:49:54;24.50;99.90
54124;DHT22;55741;53.252;5.788;2022-07-29T13:52:20;24.80;99.90
54124;DHT22;55741;53.252;5.788;2022-07-29T13:54:46;25.00;99.20
54124;DHT22;55741;53.252;5.788;2022-07-29T13:57:13;25.10;99.30
54124;DHT22;55741;53.252;5.788;2022-07-29T13:59:42;25.00;99.00
54124;DHT22;55741;53.252;5.788;2022-07-29T14:02:10;24.90;99.20
54124;DHT22;55741;53.252;5.788;2022-07-29T14:04:38;24.80;99.30
54124;DHT22;55741;53.252;5.788;2022-07-29T14:07:04;24.70;99.20
54124;DHT22;55741;53.252;5.788;2022-07-29T14:09:30;24.60;99.00
54124;DHT22;55741;53.252;5.788;2022-07-29T14:11:55;24.50;99.30
54124;DHT22;55741;53.252;5.788;2022-07-29T14:14:21;24.40;98.90
54124;DHT22;55741;53.252;5.788;2022-07-29T14:16:47;24.40;98.80
54124;DHT22;55741;53.252;5.788;2022-07-29T14:19:13;24.30;98.70
54124;DHT22;55741;53.252;5.788;2022-07-29T14:21:39;24.30;98.70
54124;DHT22;55741;53.252;5.788;2022-07-29T14:24:05;24.20;99.30
54124;DHT22;55741;53.252;5.788;2022-07-29T14:26:31;24.30;99.00
54124;DHT22;55741;53.252;5.788;2022-07-29T14:28:57;24.50;99.00
54124;DHT22;55741;53.252;5.788;2022-07-29T14:31:23;24.80;98.40
54124;DHT22;55741;53.252;5.788;2022-07-29T14:33:49;25.10;98.30
54124;DHT22;55741;53.252;5.788;2022-07-29T14:36:15;25.40;98.20
54124;DHT22;55741;53.252;5.788;2022-07-29T14:38:41;25.60;97.50
54124;DHT22;55741;53.252;5.788;2022-07-29T14:41:07;25.70;97.00
54124;DHT22;55741;53.252;5.788;2022-07-29T14:43:34;25.90;96.40
54124;DHT22;55741;53.252;5.788;2022-07-29T14:46:01;25.90;96.00
54124;DHT22;55741;53.252;5.788;2022-07-29T14:48:27;25.90;95.50
54124;DHT22;55741;53.252;5.788;2022-07-29T14:50:53;25.90;95.20
54124;DHT22;55741;53.252;5.788;2022-07-29T14:53:20;26.00;95.10
54124;DHT22;55741;53.252;5.788;2022-07-29T14:55:46;26.20;95.40
54124;DHT22;55741;53.252;5.788;2022-07-29T14:58:12;26.10;95.20
54124;DHT22;55741;53.252;5.788;2022-07-29T15:00:37;26.10;94.80
54124;DHT22;55741;53.252;5.788;2022-07-29T15:03:03;26.20;94.80
54124;DHT22;55741;53.252;5.788;2022-07-29T15:05:32;26.20;94.20
54124;DHT22;55741;53.252;5.788;2022-07-29T15:07:59;26.20;94.10
54124;DHT22;55741;53.252;5.788;2022-07-29T15:10:25;26.20;94.10
54124;DHT22;55741;53.252;5.788;2022-07-29T15:12:54;26.30;93.70
54124;DHT22;55741;53.252;5.788;2022-07-29T15:15:21;26.20;93.80
54124;DHT22;55741;53.252;5.788;2022-07-29T15:17:47;26.20;93.40
54124;DHT22;55741;53.252;5.788;2022-07-29T15:20:14;26.30;93.50
54124;DHT22;55741;53.252;5.788;2022-07-29T15:22:42;26.40;93.20
54124;DHT22;55741;53.252;5.788;2022-07-29T15:25:09;26.40;93.10
54124;DHT22;55741;53.252;5.788;2022-07-29T15:27:35;26.50;92.80
54124;DHT22;55741;53.252;5.788;2022-07-29T15:30:01;26.50;92.50
54124;DHT22;55741;53.252;5.788;2022-07-29T15:32:26;26.50;92.30
54124;DHT22;55741;53.252;5.788;2022-07-29T15:34:52;26.50;92.60
54124;DHT22;55741;53.252;5.788;2022-07-29T15:37:18;26.60;92.80
54124;DHT22;55741;53.252;5.788;2022-07-29T15:39:44;26.70;92.60
54124;DHT22;55741;53.252;5.788;2022-07-29T15:42:10;26.70;92.70
54124;DHT22;55741;53.252;5.788;2022-07-29T15:44:36;26.80;92.60
54124;DHT22;55741;53.252;5.788;2022-07-29T15:47:01;26.80;92.40
54124;DHT22;55741;53.252;5.788;2022-07-29T15:49:36;26.90;92.60
54124;DHT22;55741;53.252;5.788;2022-07-29T15:52:05;26.90;92.80
54124;DHT22;55741;53.252;5.788;2022-07-29T15:54:35;27.00;93.20
54124;DHT22;55741;53.252;5.788;2022-07-29T15:57:02;26.90;94.60
54124;DHT22;55741;53.252;5.788;2022-07-29T15:59:28;26.60;96.30
54124;DHT22;55741;53.252;5.788;2022-07-29T16:01:55;26.30;97.40
54124;DHT22;55741;53.252;5.788;2022-07-29T16:04:21;26.10;97.90
54124;DHT22;55741;53.252;5.788;2022-07-29T16:06:49;25.80;98.30
54124;DHT22;55741;53.252;5.788;2022-07-29T16:09:16;25.70;98.70
54124;DHT22;55741;53.252;5.788;2022-07-29T16:11:42;25.50;99.30
54124;DHT22;55741;53.252;5.788;2022-07-29T16:14:09;25.40;99.70
54124;DHT22;55741;53.252;5.788;2022-07-29T16:16:36;25.20;99.90